sensor_id;sensor_type;location;lat;lon;timestamp;P1;durP1;ratioP1;P2;durP2;ratioP2
2848;SDS011;59355;52.416;13.412;2022-10-31T00:00:45;29.77;;;22.57;;
2848;SDS011;59355;52.416;13.412;2022-10-31T00:03:10;26.40;;;23.37;;
2848;SDS011;59355;52.416;13.412;2022-10-31T00:05:36;23.07;;;20.63;;
2848;SDS011;59355;52.416;13.412;2022-10-31T00:08:05;24.53;;;22.10;;
2848;SDS011;59355;52.416;13.412;2022-10-31T00:10:30;23.03;;;20.70;;
2848;SDS011;59355;52.416;13.412;2022-10-31T00:12:56;22.50;;;20.00;;
2848;SDS011;59355;52.416;13.412;2022-10-31T00:15:21;23.63;;;20.90;;
2848;SDS011;59355;52.416;13.412;2022-10-31T00:17:46;23.43;;;21.03;;
2848;SDS011;59355;52.416;13.412;2022-10-31T00:20:12;23.40;;;21.10;;
2848;SDS011;59355;52.416;13.412;2022-10-31T00:22:37;22.73;;;20.03;;
2848;SDS011;59355;52.416;13.412;2022-10-31T00:25:02;24.00;;;19.90;;
2848;SDS011;59355;52.416;13.412;2022-10-31T00:27:28;21.43;;;19.23;;
2848;SDS011;59355;52.416;13.412;2022-10-31T00:29:53;22.60;;;20.33;;
2848;SDS011;59355;52.416;13.412;2022-10-31T00:32:18;24.70;;;19.90;;
2848;SDS011;59355;52.416;13.412;2022-10-31T00:34:44;21.47;;;19.37;;
2848;SDS011;59355;52.416;13.412;2022-10-31T00:37:09;21.63;;;19.50;;
2848;SDS011;59355;52.416;13.412;2022-10-31T00:39:34;22.43;;;20.00;;
2848;SDS011;59355;52.416;13.412;2022-10-31T00:42:00;22.43;;;20.10;;
2848;SDS011;59355;52.416;13.412;2022-10-31T00:44:25;21.73;;;19.50;;
2848;SDS011;59355;52.416;13.412;2022-10-31T00:46:50;20.57;;;18.20;;
2848;SDS011;59355;52.416;13.412;2022-10-31T00:49:15;20.87;;;18.60;;
2848;SDS011;59355;52.416;13.412;2022-10-31T00:51:41;22.73;;;20.53;;
2848;SDS011;59355;52.416;13.412;2022-10-31T00:54:06;22.50;;;18.83;;
2848;SDS011;59355;52.416;13.412;2022-10-31T00:56:32;20.87;;;18.67;;
2848;SDS011;59355;52.416;13.412;2022-10-31T00:58:57;21.50;;;19.40;;
2848;SDS011;59355;52.416;13.412;2022-10-31T01:01:22;21.93;;;19.83;;
2848;SDS011;59355;52.416;13.412;2022-10-31T01:03:47;21.80;;;19.60;;
2848;SDS011;59355;52.416;13.412;2022-10-31T01:06:13;20.83;;;18.73;;
2848;SDS011;59355;52.416;13.412;2022-10-31T01:08:39;28.63;;;20.50;;
2848;SDS011;59355;52.416;13.412;2022-10-31T01:11:10;22.17;;;19.07;;
2848;SDS011;59355;52.416;13.412;2022-10-31T01:13:36;22.03;;;19.47;;
2848;SDS011;59355;52.416;13.412;2022-10-31T01:16:02;21.73;;;19.43;;
2848;SDS011;59355;52.416;13.412;2022-10-31T01:18:29;22.87;;;20.60;;
2848;SDS011;59355;52.416;13.412;2022-10-31T01:21:06;21.20;;;19.07;;
2848;SDS011;59355;52.416;13.412;2022-10-31T01:23:35;22.27;;;19.60;;
2848;SDS011;59355;52.416;13.412;2022-10-31T01:26:06;20.23;;;18.33;;
2848;SDS011;59355;52.416;13.412;2022-10-31T01:28:38;20.73;;;18.73;;
2848;SDS011;59355;52.416;13.412;2022-10-31T01:31:08;19.77;;;17.63;;
2848;SDS011;59355;52.416;13.412;2022-10-31T01:33:34;19.67;;;17.77;;
2848;SDS011;59355;52.416;13.412;2022-10-31T01:36:00;20.37;;;18.40;;
2848;SDS011;59355;52.416;13.412;2022-10-31T01:38:25;25.60;;;19.13;;
2848;SDS011;59355;52.416;13.412;2022-10-31T01:40:51;19.37;;;17.37;;
2848;SDS011;59355;52.416;13.412;2022-10-31T01:43:16;20.47;;;18.47;;
2848;SDS011;59355;52.416;13.412;2022-10-31T01:45:42;19.33;;;17.53;;
2848;SDS011;59355;52.416;13.412;2022-10-31T01:48:12;19.80;;;17.87;;
2848;SDS011;59355;52.416;13.412;2022-10-31T01:50:39;19.90;;;17.80;;
2848;SDS011;59355;52.416;13.412;2022-10-31T01:53:04;20.70;;;16.87;;
2848;SDS011;59355;52.416;13.412;2022-10-31T01:55:33;18.67;;;16.97;;
2848;SDS011;59355;52.416;13.412;2022-10-31T01:58:22;17.93;;;16.20;;
2848;SDS011;59355;52.416;13.412;2022-10-31T02:00:48;22.87;;;18.07;;
2848;SDS011;59355;52.416;13.412;2022-10-31T02:03:16;20.33;;;18.17;;
2848;SDS011;59355;52.416;13.412;2022-10-31T02:05:42;23.60;;;21.20;;
2848;SDS011;59355;52.416;13.412;2022-10-31T02:08:12;23.53;;;21.23;;
2848;SDS011;59355;52.416;13.412;2022-10-31T02:10:40;25.53;;;20.03;;
2848;SDS011;59355;52.416;13.412;2022-10-31T02:13:07;23.20;;;20.70;;
2848;SDS011;59355;52.416;13.412;2022-10-31T02:15:33;22.83;;;20.23;;
2848;SDS011;59355;52.416;13.412;2022-10-31T02:18:00;23.93;;;21.13;;
2848;SDS011;59355;52.416;13.412;2022-10-31T02:20:26;22.40;;;20.23;;
2848;SDS011;59355;52.416;13.412;2022-10-31T02:23:02;22.57;;;20.27;;
2848;SDS011;59355;52.416;13.412;2022-10-31T02:28:50;20.07;;;17.97;;
2848;SDS011;59355;52.416;13.412;2022-10-31T02:31:41;24.07;;;18.03;;
2848;SDS011;59355;52.416;13.412;2022-10-31T02:34:17;24.30;;;18.17;;
2848;SDS011;59355;52.416;13.412;2022-10-31T02:36:57;18.47;;;16.50;;
2848;SDS011;59355;52.416;13.412;2022-10-31T02:39:26;19.57;;;16.73;;
2848;SDS011;59355;52.416;13.412;2022-10-31T02:42:16;17.70;;;15.97;;
2848;SDS011;59355;52.416;13.412;2022-10-31T02:47:23;17.00;;;15.30;;
2848;SDS011;59355;52.416;13.412;2022-10-31T02:49:59;17.40;;;15.67;;
2848;SDS011;59355;52.416;13.412;2022-10-31T02:52:29;17.73;;;15.97;;
2848;SDS011;59355;52.416;13.412;2022-10-31T02:54:56;20.40;;;17.27;;
2848;SDS011;59355;52.416;13.412;2022-10-31T02:57:25;20.67;;;18.67;;
2848;SDS011;59355;52.416;13.412;2022-10-31T02:59:53;20.50;;;18.50;;
2848;SDS011;59355;52.416;13.412;2022-10-31T03:02:41;20.83;;;17.57;;
2848;SDS011;59355;52.416;13.412;2022-10-31T03:08:07;19.67;;;17.53;;
2848;SDS011;59355;52.416;13.412;2022-10-31T03:19:19;22.70;;;20.33;;
2848;SDS011;59355;52.416;13.412;2022-10-31T03:21:42;26.63;;;22.17;;
2848;SDS011;59355;52.416;13.412;2022-10-31T03:24:09;26.63;;;23.17;;
2848;SDS011;59355;52.416;13.412;2022-10-31T03:26:37;26.00;;;23.20;;
2848;SDS011;59355;52.416;13.412;2022-10-31T03:29:05;28.10;;;20.97;;
2848;SDS011;59355;52.416;13.412;2022-10-31T03:31:32;23.80;;;21.30;;
2848;SDS011;59355;52.416;13.412;2022-10-31T03:34:00;24.67;;;22.07;;
2848;SDS011;59355;52.416;13.412;2022-10-31T03:36:26;28.13;;;22.37;;
2848;SDS011;59355;52.416;13.412;2022-10-31T03:38:55;24.77;;;22.17;;
2848;SDS011;59355;52.416;13.412;2022-10-31T03:41:23;28.77;;;22.33;;
2848;SDS011;59355;52.416;13.412;2022-10-31T03:43:54;24.60;;;21.27;;
2848;SDS011;59355;52.416;13.412;2022-10-31T03:46:21;23.80;;;21.47;;
2848;SDS011;59355;52.416;13.412;2022-10-31T03:48:47;28.33;;;23.47;;
2848;SDS011;59355;52.416;13.412;2022-10-31T03:56:43;23.30;;;20.23;;
2848;SDS011;59355;52.416;13.412;2022-10-31T03:59:32;23.40;;;19.93;;
2848;SDS011;59355;52.416;13.412;2022-10-31T04:02:00;21.27;;;19.17;;
2848;SDS011;59355;52.416;13.412;2022-10-31T04:04:28;22.93;;;19.73;;
2848;SDS011;59355;52.416;13.412;2022-10-31T04:06:54;22.43;;;19.53;;
2848;SDS011;59355;52.416;13.412;2022-10-31T04:09:21;21.10;;;18.60;;
2848;SDS011;59355;52.416;13.412;2022-10-31T04:11:50;19.60;;;17.60;;
2848;SDS011;59355;52.416;13.412;2022-10-31T04:14:17;20.73;;;18.37;;
2848;SDS011;59355;52.416;13.412;2022-10-31T04:16:42;20.73;;;18.47;;
2848;SDS011;59355;52.416;13.412;2022-10-31T04:19:09;24.30;;;16.63;;
2848;SDS011;59355;52.416;13.412;2022-10-31T04:21:35;21.60;;;17.30;;
2848;SDS011;59355;52.416;13.412;2022-10-31T04:24:01;22.40;;;18.80;;
2848;SDS011;59355;52.416;13.412;2022-10-31T04:26:26;20.30;;;18.10;;
2848;SDS011;59355;52.416;13.412;2022-10-31T04:28:51;18.90;;;16.90;;
2848;SDS011;59355;52.416;13.412;2022-10-31T04:31:17;19.97;;;18.07;;
2848;SDS011;59355;52.416;13.412;2022-10-31T04:33:42;21.27;;;17.13;;
2848;SDS011;59355;52.416;13.412;2022-10-31T04:36:07;19.67;;;17.53;;
2848;SDS011;59355;52.416;13.412;2022-10-31T04:38:33;21.20;;;19.03;;
2848;SDS011;59355;52.416;13.412;2022-10-31T04:40:59;19.90;;;17.77;;
2848;SDS011;59355;52.416;13.412;2022-10-31T04:43:24;18.87;;;16.87;;
2848;SDS011;59355;52.416;13.412;2022-10-31T04:45:49;18.37;;;16.43;;
2848;SDS011;59355;52.416;13.412;2022-10-31T04:48:15;18.37;;;16.40;;
2848;SDS011;59355;52.416;13.412;2022-10-31T04:50:41;18.97;;;16.80;;
2848;SDS011;59355;52.416;13.412;2022-10-31T04:53:07;16.70;;;15.10;;
2848;SDS011;59355;52.416;13.412;2022-10-31T04:55:32;16.77;;;14.87;;
2848;SDS011;59355;52.416;13.412;2022-10-31T04:57:58;16.80;;;14.93;;
2848;SDS011;59355;52.416;13.412;2022-10-31T05:00:23;17.73;;;16.03;;
2848;SDS011;59355;52.416;13.412;2022-10-31T05:02:52;17.10;;;15.40;;
2848;SDS011;59355;52.416;13.412;2022-10-31T05:05:20;19.47;;;16.50;;
2848;SDS011;59355;52.416;13.412;2022-10-31T05:07:47;18.23;;;16.37;;
2848;SDS011;59355;52.416;13.412;2022-10-31T05:10:14;17.03;;;14.63;;
2848;SDS011;59355;52.416;13.412;2022-10-31T05:12:51;16.57;;;14.87;;
2848;SDS011;59355;52.416;13.412;2022-10-31T05:15:18;16.47;;;14.87;;
2848;SDS011;59355;52.416;13.412;2022-10-31T05:17:44;16.87;;;14.93;;
2848;SDS011;59355;52.416;13.412;2022-10-31T05:20:10;17.17;;;15.37;;
2848;SDS011;59355;52.416;13.412;2022-10-31T05:22:41;23.20;;;15.53;;
2848;SDS011;59355;52.416;13.412;2022-10-31T05:25:07;17.13;;;15.30;;
2848;SDS011;59355;52.416;13.412;2022-10-31T05:27:32;16.90;;;15.10;;
2848;SDS011;59355;52.416;13.412;2022-10-31T05:29:58;15.83;;;14.20;;
2848;SDS011;59355;52.416;13.412;2022-10-31T05:32:23;15.50;;;13.90;;
2848;SDS011;59355;52.416;13.412;2022-10-31T05:34:48;16.10;;;14.40;;
2848;SDS011;59355;52.416;13.412;2022-10-31T05:37:14;16.77;;;15.00;;
2848;SDS011;59355;52.416;13.412;2022-10-31T05:39:39;17.00;;;15.40;;
2848;SDS011;59355;52.416;13.412;2022-10-31T05:42:04;17.93;;;14.60;;
2848;SDS011;59355;52.416;13.412;2022-10-31T05:44:30;15.20;;;13.77;;
2848;SDS011;59355;52.416;13.412;2022-10-31T05:46:55;17.60;;;14.10;;
2848;SDS011;59355;52.416;13.412;2022-10-31T05:49:20;15.93;;;14.23;;
2848;SDS011;59355;52.416;13.412;2022-10-31T05:51:46;20.50;;;16.80;;
2848;SDS011;59355;52.416;13.412;2022-10-31T05:54:11;15.73;;;14.17;;
2848;SDS011;59355;52.416;13.412;2022-10-31T05:56:36;16.43;;;13.83;;
2848;SDS011;59355;52.416;13.412;2022-10-31T05:59:01;14.67;;;13.27;;
2848;SDS011;59355;52.416;13.412;2022-10-31T06:01:27;14.93;;;13.43;;
2848;SDS011;59355;52.416;13.412;2022-10-31T06:03:52;21.43;;;13.60;;
2848;SDS011;59355;52.416;13.412;2022-10-31T06:06:17;15.63;;;13.37;;
2848;SDS011;59355;52.416;13.412;2022-10-31T06:08:43;15.93;;;14.23;;
2848;SDS011;59355;52.416;13.412;2022-10-31T06:11:08;15.10;;;13.60;;
2848;SDS011;59355;52.416;13.412;2022-10-31T06:13:33;15.70;;;14.07;;
2848;SDS011;59355;52.416;13.412;2022-10-31T06:15:59;15.20;;;13.63;;
2848;SDS011;59355;52.416;13.412;2022-10-31T06:18:24;14.37;;;12.87;;
2848;SDS011;59355;52.416;13.412;2022-10-31T06:20:49;14.63;;;13.07;;
2848;SDS011;59355;52.416;13.412;2022-10-31T06:23:15;14.93;;;13.37;;
2848;SDS011;59355;52.416;13.412;2022-10-31T06:25:40;15.17;;;13.60;;
2848;SDS011;59355;52.416;13.412;2022-10-31T06:28:05;16.30;;;14.70;;
2848;SDS011;59355;52.416;13.412;2022-10-31T06:30:31;14.43;;;13.13;;
2848;SDS011;59355;52.416;13.412;2022-10-31T06:33:03;18.03;;;14.17;;
2848;SDS011;59355;52.416;13.412;2022-10-31T06:35:29;14.30;;;12.90;;
2848;SDS011;59355;52.416;13.412;2022-10-31T06:37:54;14.80;;;13.30;;
2848;SDS011;59355;52.416;13.412;2022-10-31T06:40:20;16.40;;;14.77;;
2848;SDS011;59355;52.416;13.412;2022-10-31T06:42:45;15.93;;;12.73;;
2848;SDS011;59355;52.416;13.412;2022-10-31T06:45:11;14.70;;;13.17;;
2848;SDS011;59355;52.416;13.412;2022-10-31T06:47:36;15.87;;;14.50;;
2848;SDS011;59355;52.416;13.412;2022-10-31T06:50:01;17.70;;;15.10;;
2848;SDS011;59355;52.416;13.412;2022-10-31T06:52:26;14.53;;;13.20;;
2848;SDS011;59355;52.416;13.412;2022-10-31T06:54:52;20.13;;;14.50;;
2848;SDS011;59355;52.416;13.412;2022-10-31T06:57:17;15.90;;;14.33;;
2848;SDS011;59355;52.416;13.412;2022-10-31T06:59:42;20.10;;;14.13;;
2848;SDS011;59355;52.416;13.412;2022-10-31T07:02:11;17.53;;;14.63;;
2848;SDS011;59355;52.416;13.412;2022-10-31T07:04:36;16.23;;;14.63;;
2848;SDS011;59355;52.416;13.412;2022-10-31T07:07:02;17.60;;;13.90;;
2848;SDS011;59355;52.416;13.412;2022-10-31T07:09:27;14.73;;;13.23;;
2848;SDS011;59355;52.416;13.412;2022-10-31T07:11:53;17.80;;;15.93;;
2848;SDS011;59355;52.416;13.412;2022-10-31T07:14:18;23.00;;;15.90;;
2848;SDS011;59355;52.416;13.412;2022-10-31T07:16:43;20.87;;;16.20;;
2848;SDS011;59355;52.416;13.412;2022-10-31T07:19:13;18.13;;;16.33;;
2848;SDS011;59355;52.416;13.412;2022-10-31T07:21:38;18.00;;;15.50;;
2848;SDS011;59355;52.416;13.412;2022-10-31T07:24:03;19.50;;;16.70;;
2848;SDS011;59355;52.416;13.412;2022-10-31T07:26:29;20.20;;;16.17;;
2848;SDS011;59355;52.416;13.412;2022-10-31T07:28:54;19.23;;;17.07;;
2848;SDS011;59355;52.416;13.412;2022-10-31T07:31:20;26.07;;;19.67;;
2848;SDS011;59355;52.416;13.412;2022-10-31T07:33:45;28.90;;;20.93;;
2848;SDS011;59355;52.416;13.412;2022-10-31T07:36:10;27.33;;;21.30;;
2848;SDS011;59355;52.416;13.412;2022-10-31T07:38:35;25.67;;;22.37;;
2848;SDS011;59355;52.416;13.412;2022-10-31T07:41:01;24.43;;;21.17;;
2848;SDS011;59355;52.416;13.412;2022-10-31T07:43:26;25.73;;;21.07;;
2848;SDS011;59355;52.416;13.412;2022-10-31T07:45:52;23.20;;;19.77;;
2848;SDS011;59355;52.416;13.412;2022-10-31T07:48:17;24.03;;;20.97;;
2848;SDS011;59355;52.416;13.412;2022-10-31T07:50:43;27.10;;;19.80;;
2848;SDS011;59355;52.416;13.412;2022-10-31T07:53:09;22.43;;;19.87;;
2848;SDS011;59355;52.416;13.412;2022-10-31T07:55:36;20.83;;;18.57;;
2848;SDS011;59355;52.416;13.412;2022-10-31T07:58:03;22.40;;;20.07;;
2848;SDS011;59355;52.416;13.412;2022-10-31T08:00:29;22.53;;;18.93;;
2848;SDS011;59355;52.416;13.412;2022-10-31T08:02:56;25.90;;;19.57;;
2848;SDS011;59355;52.416;13.412;2022-10-31T08:05:25;24.27;;;19.80;;
2848;SDS011;59355;52.416;13.412;2022-10-31T08:07:50;22.07;;;19.77;;
2848;SDS011;59355;52.416;13.412;2022-10-31T08:10:15;23.67;;;20.07;;
2848;SDS011;59355;52.416;13.412;2022-10-31T08:12:40;23.00;;;19.40;;
2848;SDS011;59355;52.416;13.412;2022-10-31T08:15:06;26.93;;;22.57;;
2848;SDS011;59355;52.416;13.412;2022-10-31T08:17:34;22.63;;;20.13;;
2848;SDS011;59355;52.416;13.412;2022-10-31T08:20:00;24.80;;;20.73;;
2848;SDS011;59355;52.416;13.412;2022-10-31T08:22:26;27.30;;;19.10;;
2848;SDS011;59355;52.416;13.412;2022-10-31T08:24:51;26.47;;;20.13;;
2848;SDS011;59355;52.416;13.412;2022-10-31T08:27:16;26.87;;;20.93;;
2848;SDS011;59355;52.416;13.412;2022-10-31T08:29:42;21.20;;;18.67;;
2848;SDS011;59355;52.416;13.412;2022-10-31T08:32:07;29.33;;;21.43;;
2848;SDS011;59355;52.416;13.412;2022-10-31T08:34:32;27.83;;;21.77;;
2848;SDS011;59355;52.416;13.412;2022-10-31T08:36:58;23.27;;;20.17;;
2848;SDS011;59355;52.416;13.412;2022-10-31T08:39:23;23.00;;;20.50;;
2848;SDS011;59355;52.416;13.412;2022-10-31T08:41:48;26.10;;;22.57;;
2848;SDS011;59355;52.416;13.412;2022-10-31T08:44:14;30.17;;;22.33;;
2848;SDS011;59355;52.416;13.412;2022-10-31T08:46:40;30.30;;;22.57;;
2848;SDS011;59355;52.416;13.412;2022-10-31T08:49:05;24.30;;;21.60;;
2848;SDS011;59355;52.416;13.412;2022-10-31T08:51:31;30.27;;;23.30;;
2848;SDS011;59355;52.416;13.412;2022-10-31T08:53:56;27.80;;;22.00;;
2848;SDS011;59355;52.416;13.412;2022-10-31T08:56:21;25.40;;;22.57;;
2848;SDS011;59355;52.416;13.412;2022-10-31T08:58:47;29.73;;;23.17;;
2848;SDS011;59355;52.416;13.412;2022-10-31T09:01:12;29.87;;;22.20;;
2848;SDS011;59355;52.416;13.412;2022-10-31T09:03:37;27.63;;;23.23;;
2848;SDS011;59355;52.416;13.412;2022-10-31T09:06:03;29.60;;;22.50;;
2848;SDS011;59355;52.416;13.412;2022-10-31T09:08:30;28.73;;;22.50;;
2848;SDS011;59355;52.416;13.412;2022-10-31T09:10:57;30.97;;;24.87;;
2848;SDS011;59355;52.416;13.412;2022-10-31T09:13:22;34.87;;;25.20;;
2848;SDS011;59355;52.416;13.412;2022-10-31T09:15:48;29.80;;;24.23;;
2848;SDS011;59355;52.416;13.412;2022-10-31T09:18:15;31.70;;;25.70;;
2848;SDS011;59355;52.416;13.412;2022-10-31T09:20:43;25.73;;;22.73;;
2848;SDS011;59355;52.416;13.412;2022-10-31T09:23:13;31.50;;;23.50;;
2848;SDS011;59355;52.416;13.412;2022-10-31T09:25:40;28.60;;;22.60;;
2848;SDS011;59355;52.416;13.412;2022-10-31T09:28:06;25.77;;;22.07;;
2848;SDS011;59355;52.416;13.412;2022-10-31T09:30:33;27.07;;;22.60;;
2848;SDS011;59355;52.416;13.412;2022-10-31T09:33:04;29.43;;;23.47;;
2848;SDS011;59355;52.416;13.412;2022-10-31T09:35:30;26.90;;;23.53;;
2848;SDS011;59355;52.416;13.412;2022-10-31T09:37:56;25.07;;;22.37;;
2848;SDS011;59355;52.416;13.412;2022-10-31T09:40:42;27.40;;;22.93;;
2848;SDS011;59355;52.416;13.412;2022-10-31T09:51:04;27.40;;;24.47;;
2848;SDS011;59355;52.416;13.412;2022-10-31T09:53:35;31.97;;;25.23;;
2848;SDS011;59355;52.416;13.412;2022-10-31T09:56:14;26.90;;;23.87;;
2848;SDS011;59355;52.416;13.412;2022-10-31T09:58:42;36.70;;;26.70;;
2848;SDS011;59355;52.416;13.412;2022-10-31T10:01:14;34.67;;;24.17;;
2848;SDS011;59355;52.416;13.412;2022-10-31T10:03:47;32.50;;;25.30;;
2848;SDS011;59355;52.416;13.412;2022-10-31T10:06:17;29.17;;;26.03;;
2848;SDS011;59355;52.416;13.412;2022-10-31T10:08:44;33.20;;;24.03;;
2848;SDS011;59355;52.416;13.412;2022-10-31T10:14:10;33.30;;;26.80;;
2848;SDS011;59355;52.416;13.412;2022-10-31T10:20:25;39.87;;;29.73;;
2848;SDS011;59355;52.416;13.412;2022-10-31T10:25:19;34.83;;;28.00;;
2848;SDS011;59355;52.416;13.412;2022-10-31T10:30:36;39.17;;;27.10;;
2848;SDS011;59355;52.416;13.412;2022-10-31T10:33:10;32.47;;;27.40;;
2848;SDS011;59355;52.416;13.412;2022-10-31T10:35:45;31.23;;;25.80;;
2848;SDS011;59355;52.416;13.412;2022-10-31T10:40:40;28.30;;;25.30;;
2848;SDS011;59355;52.416;13.412;2022-10-31T10:43:22;31.10;;;23.80;;
2848;SDS011;59355;52.416;13.412;2022-10-31T10:45:52;31.60;;;26.17;;
2848;SDS011;59355;52.416;13.412;2022-10-31T10:48:43;37.97;;;27.90;;
2848;SDS011;59355;52.416;13.412;2022-10-31T10:51:17;30.73;;;26.27;;
2848;SDS011;59355;52.416;13.412;2022-10-31T10:53:49;34.40;;;26.00;;
2848;SDS011;59355;52.416;13.412;2022-10-31T10:56:37;30.63;;;26.77;;
2848;SDS011;59355;52.416;13.412;2022-10-31T10:59:08;29.73;;;26.43;;
2848;SDS011;59355;52.416;13.412;2022-10-31T11:01:36;26.70;;;23.83;;
2848;SDS011;59355;52.416;13.412;2022-10-31T11:04:02;35.93;;;27.80;;
2848;SDS011;59355;52.416;13.412;2022-10-31T11:06:27;40.83;;;28.77;;
2848;SDS011;59355;52.416;13.412;2022-10-31T11:08:53;31.80;;;26.90;;
2848;SDS011;59355;52.416;13.412;2022-10-31T11:11:31;33.10;;;28.20;;
2848;SDS011;59355;52.416;13.412;2022-10-31T11:13:58;32.90;;;26.93;;
2848;SDS011;59355;52.416;13.412;2022-10-31T11:18:50;32.10;;;27.70;;
2848;SDS011;59355;52.416;13.412;2022-10-31T11:21:20;28.37;;;25.30;;
2848;SDS011;59355;52.416;13.412;2022-10-31T11:24:01;28.87;;;24.57;;
2848;SDS011;59355;52.416;13.412;2022-10-31T11:26:27;37.37;;;26.50;;
2848;SDS011;59355;52.416;13.412;2022-10-31T11:28:56;30.03;;;26.03;;
2848;SDS011;59355;52.416;13.412;2022-10-31T11:31:22;30.17;;;26.10;;
2848;SDS011;59355;52.416;13.412;2022-10-31T11:33:49;33.77;;;29.10;;
2848;SDS011;59355;52.416;13.412;2022-10-31T11:38:47;32.17;;;27.10;;
2848;SDS011;59355;52.416;13.412;2022-10-31T11:41:20;41.80;;;29.27;;
2848;SDS011;59355;52.416;13.412;2022-10-31T11:43:52;34.30;;;28.37;;
2848;SDS011;59355;52.416;13.412;2022-10-31T11:46:25;32.53;;;25.57;;
2848;SDS011;59355;52.416;13.412;2022-10-31T11:48:52;33.67;;;27.07;;
2848;SDS011;59355;52.416;13.412;2022-10-31T11:51:20;36.00;;;25.83;;
2848;SDS011;59355;52.416;13.412;2022-10-31T11:53:50;29.10;;;24.73;;
2848;SDS011;59355;52.416;13.412;2022-10-31T11:56:17;32.03;;;26.07;;
2848;SDS011;59355;52.416;13.412;2022-10-31T11:58:42;32.50;;;26.10;;
2848;SDS011;59355;52.416;13.412;2022-10-31T12:01:23;27.93;;;23.03;;
2848;SDS011;59355;52.416;13.412;2022-10-31T12:04:09;26.83;;;23.20;;
2848;SDS011;59355;52.416;13.412;2022-10-31T12:06:36;29.10;;;25.47;;
2848;SDS011;59355;52.416;13.412;2022-10-31T12:09:08;33.57;;;24.57;;
2848;SDS011;59355;52.416;13.412;2022-10-31T12:11:52;28.40;;;23.30;;
2848;SDS011;59355;52.416;13.412;2022-10-31T12:17:21;30.57;;;26.37;;
2848;SDS011;59355;52.416;13.412;2022-10-31T12:22:41;28.67;;;25.67;;
2848;SDS011;59355;52.416;13.412;2022-10-31T12:25:35;28.60;;;24.30;;
2848;SDS011;59355;52.416;13.412;2022-10-31T12:28:35;34.33;;;22.87;;
2848;SDS011;59355;52.416;13.412;2022-10-31T12:31:26;29.43;;;23.03;;
2848;SDS011;59355;52.416;13.412;2022-10-31T12:37:14;37.13;;;26.60;;
2848;SDS011;59355;52.416;13.412;2022-10-31T12:39:51;25.77;;;22.17;;
2848;SDS011;59355;52.416;13.412;2022-10-31T12:51:09;26.63;;;23.70;;
2848;SDS011;59355;52.416;13.412;2022-10-31T12:58:56;27.40;;;22.77;;
2848;SDS011;59355;52.416;13.412;2022-10-31T13:04:05;25.53;;;21.37;;
2848;SDS011;59355;52.416;13.412;2022-10-31T13:06:38;25.33;;;21.23;;
2848;SDS011;59355;52.416;13.412;2022-10-31T13:09:10;25.23;;;21.47;;
2848;SDS011;59355;52.416;13.412;2022-10-31T13:12:12;27.57;;;22.83;;
2848;SDS011;59355;52.416;13.412;2022-10-31T13:14:33;23.13;;;20.40;;
2848;SDS011;59355;52.416;13.412;2022-10-31T13:17:02;22.53;;;20.10;;
2848;SDS011;59355;52.416;13.412;2022-10-31T13:19:30;27.63;;;20.77;;
2848;SDS011;59355;52.416;13.412;2022-10-31T13:22:04;22.33;;;19.17;;
2848;SDS011;59355;52.416;13.412;2022-10-31T13:24:52;28.73;;;20.60;;
2848;SDS011;59355;52.416;13.412;2022-10-31T13:27:22;25.60;;;20.70;;
2848;SDS011;59355;52.416;13.412;2022-10-31T13:32:38;28.63;;;21.90;;
2848;SDS011;59355;52.416;13.412;2022-10-31T13:35:10;31.00;;;23.13;;
2848;SDS011;59355;52.416;13.412;2022-10-31T13:37:41;29.37;;;23.03;;
2848;SDS011;59355;52.416;13.412;2022-10-31T13:43:10;21.87;;;18.73;;
2848;SDS011;59355;52.416;13.412;2022-10-31T13:45:50;22.53;;;20.13;;
2848;SDS011;59355;52.416;13.412;2022-10-31T13:50:56;26.97;;;21.40;;
2848;SDS011;59355;52.416;13.412;2022-10-31T13:53:37;23.00;;;19.80;;
2848;SDS011;59355;52.416;13.412;2022-10-31T13:58:33;22.57;;;20.20;;
2848;SDS011;59355;52.416;13.412;2022-10-31T14:01:00;24.70;;;20.80;;
2848;SDS011;59355;52.416;13.412;2022-10-31T14:03:38;26.10;;;21.60;;
2848;SDS011;59355;52.416;13.412;2022-10-31T14:06:05;22.37;;;19.93;;
2848;SDS011;59355;52.416;13.412;2022-10-31T14:08:32;25.57;;;20.27;;
2848;SDS011;59355;52.416;13.412;2022-10-31T14:11:00;23.87;;;17.50;;
2848;SDS011;59355;52.416;13.412;2022-10-31T14:13:31;19.83;;;17.63;;
2848;SDS011;59355;52.416;13.412;2022-10-31T14:16:00;19.50;;;17.10;;
2848;SDS011;59355;52.416;13.412;2022-10-31T14:18:39;21.50;;;19.20;;
2848;SDS011;59355;52.416;13.412;2022-10-31T14:23:51;19.13;;;17.17;;
2848;SDS011;59355;52.416;13.412;2022-10-31T14:28:52;26.97;;;20.13;;
2848;SDS011;59355;52.416;13.412;2022-10-31T14:32:06;24.33;;;20.10;;
2848;SDS011;59355;52.416;13.412;2022-10-31T14:34:55;20.03;;;17.27;;
2848;SDS011;59355;52.416;13.412;2022-10-31T14:40:16;20.83;;;18.57;;
2848;SDS011;59355;52.416;13.412;2022-10-31T14:51:31;24.40;;;21.47;;
2848;SDS011;59355;52.416;13.412;2022-10-31T14:54:11;23.93;;;18.43;;
2848;SDS011;59355;52.416;13.412;2022-10-31T14:56:41;21.63;;;18.17;;
2848;SDS011;59355;52.416;13.412;2022-10-31T14:59:13;19.50;;;17.47;;
2848;SDS011;59355;52.416;13.412;2022-10-31T15:01:40;20.47;;;17.03;;
2848;SDS011;59355;52.416;13.412;2022-10-31T15:04:17;18.63;;;16.60;;
2848;SDS011;59355;52.416;13.412;2022-10-31T15:06:46;21.40;;;17.70;;
2848;SDS011;59355;52.416;13.412;2022-10-31T15:09:21;24.70;;;20.40;;
2848;SDS011;59355;52.416;13.412;2022-10-31T15:11:54;28.20;;;22.77;;
2848;SDS011;59355;52.416;13.412;2022-10-31T15:14:21;33.63;;;22.20;;
2848;SDS011;59355;52.416;13.412;2022-10-31T15:16:48;27.40;;;22.27;;
2848;SDS011;59355;52.416;13.412;2022-10-31T15:19:16;28.27;;;23.03;;
2848;SDS011;59355;52.416;13.412;2022-10-31T15:21:46;24.83;;;20.60;;
2848;SDS011;59355;52.416;13.412;2022-10-31T15:24:12;25.33;;;21.37;;
2848;SDS011;59355;52.416;13.412;2022-10-31T15:26:43;40.00;;;30.63;;
2848;SDS011;59355;52.416;13.412;2022-10-31T15:29:14;40.93;;;32.77;;
2848;SDS011;59355;52.416;13.412;2022-10-31T15:31:54;39.50;;;29.53;;
2848;SDS011;59355;52.416;13.412;2022-10-31T15:34:38;31.50;;;26.33;;
2848;SDS011;59355;52.416;13.412;2022-10-31T15:37:04;39.27;;;31.23;;
2848;SDS011;59355;52.416;13.412;2022-10-31T15:39:34;49.80;;;36.10;;
2848;SDS011;59355;52.416;13.412;2022-10-31T15:41:59;43.77;;;35.07;;
2848;SDS011;59355;52.416;13.412;2022-10-31T15:44:26;34.10;;;29.70;;
2848;SDS011;59355;52.416;13.412;2022-10-31T15:46:54;42.60;;;32.67;;
2848;SDS011;59355;52.416;13.412;2022-10-31T15:49:31;38.23;;;30.60;;
2848;SDS011;59355;52.416;13.412;2022-10-31T15:52:05;41.77;;;34.33;;
2848;SDS011;59355;52.416;13.412;2022-10-31T15:54:48;35.90;;;30.43;;
2848;SDS011;59355;52.416;13.412;2022-10-31T15:57:15;31.20;;;27.57;;
2848;SDS011;59355;52.416;13.412;2022-10-31T15:59:41;40.60;;;29.80;;
2848;SDS011;59355;52.416;13.412;2022-10-31T16:02:11;35.57;;;31.10;;
2848;SDS011;59355;52.416;13.412;2022-10-31T16:04:46;49.93;;;37.20;;
2848;SDS011;59355;52.416;13.412;2022-10-31T16:07:14;44.10;;;36.07;;
2848;SDS011;59355;52.416;13.412;2022-10-31T16:12:18;39.70;;;33.50;;
2848;SDS011;59355;52.416;13.412;2022-10-31T16:14:44;35.03;;;31.23;;
2848;SDS011;59355;52.416;13.412;2022-10-31T16:17:16;45.53;;;32.90;;